sensor_id;sensor_type;location;lat;lon;timestamp;P1;durP1;ratioP1;P2;durP2;ratioP2
62673;SDS011;62269;47.594;17.638;2024-03-07T00:00:41;26.87;;;21.77;;
62673;SDS011;62269;47.594;17.638;2024-03-07T00:01:39;31.50;;;23.83;;
62673;SDS011;62269;47.594;17.638;2024-03-07T00:02:36;30.05;;;23.08;;
62673;SDS011;62269;47.594;17.638;2024-03-07T00:03:35;27.37;;;21.95;;
62673;SDS011;62269;47.594;17.638;2024-03-07T00:04:32;30.95;;;23.70;;
62673;SDS011;62269;47.594;17.638;2024-03-07T00:05:29;29.55;;;24.00;;
62673;SDS011;62269;47.594;17.638;2024-03-07T00:06:26;31.05;;;23.85;;
62673;SDS011;62269;47.594;17.638;2024-03-07T00:07:24;28.52;;;22.37;;
62673;SDS011;62269;47.594;17.638;2024-03-07T00:08:21;30.83;;;24.12;;
62673;SDS011;62269;47.594;17.638;2024-03-07T00:09:18;26.40;;;22.00;;
62673;SDS011;62269;47.594;17.638;2024-03-07T00:10:16;30.73;;;23.40;;
62673;SDS011;62269;47.594;17.638;2024-03-07T00:11:13;27.65;;;21.98;;
62673;SDS011;62269;47.594;17.638;2024-03-07T00:12:11;28.10;;;22.62;;
62673;SDS011;62269;47.594;17.638;2024-03-07T00:13:09;26.52;;;22.40;;
62673;SDS011;62269;47.594;17.638;2024-03-07T00:14:07;29.25;;;22.33;;
62673;SDS011;62269;47.594;17.638;2024-03-07T00:15:04;28.48;;;21.37;;
62673;SDS011;62269;47.594;17.638;2024-03-07T00:16:02;29.77;;;22.23;;
62673;SDS011;62269;47.594;17.638;2024-03-07T00:17:00;28.52;;;22.62;;
62673;SDS011;62269;47.594;17.638;2024-03-07T00:17:58;27.45;;;22.83;;
62673;SDS011;62269;47.594;17.638;2024-03-07T00:18:57;25.33;;;20.85;;
62673;SDS011;62269;47.594;17.638;2024-03-07T00:19:54;29.65;;;23.02;;
62673;SDS011;62269;47.594;17.638;2024-03-07T00:20:51;28.95;;;21.60;;
62673;SDS011;62269;47.594;17.638;2024-03-07T00:21:49;26.17;;;21.70;;
62673;SDS011;62269;47.594;17.638;2024-03-07T00:22:46;28.05;;;22.73;;
62673;SDS011;62269;47.594;17.638;2024-03-07T00:23:43;27.67;;;21.20;;
62673;SDS011;62269;47.594;17.638;2024-03-07T00:24:40;28.25;;;21.37;;
62673;SDS011;62269;47.594;17.638;2024-03-07T00:25:39;28.58;;;22.85;;
62673;SDS011;62269;47.594;17.638;2024-03-07T00:26:36;28.52;;;23.50;;
62673;SDS011;62269;47.594;17.638;2024-03-07T00:27:34;27.40;;;20.67;;
62673;SDS011;62269;47.594;17.638;2024-03-07T00:28:32;28.48;;;21.90;;
62673;SDS011;62269;47.594;17.638;2024-03-07T00:29:35;31.05;;;23.30;;
62673;SDS011;62269;47.594;17.638;2024-03-07T00:30:34;26.95;;;21.77;;
62673;SDS011;62269;47.594;17.638;2024-03-07T00:31:31;27.80;;;21.95;;
62673;SDS011;62269;47.594;17.638;2024-03-07T00:32:29;27.85;;;23.05;;
62673;SDS011;62269;47.594;17.638;2024-03-07T00:33:32;30.77;;;22.05;;
62673;SDS011;62269;47.594;17.638;2024-03-07T00:34:49;26.58;;;21.87;;
62673;SDS011;62269;47.594;17.638;2024-03-07T00:35:47;28.42;;;22.75;;
62673;SDS011;62269;47.594;17.638;2024-03-07T00:36:44;29.37;;;22.48;;
62673;SDS011;62269;47.594;17.638;2024-03-07T00:37:41;28.30;;;23.12;;
62673;SDS011;62269;47.594;17.638;2024-03-07T00:38:39;27.80;;;21.27;;
62673;SDS011;62269;47.594;17.638;2024-03-07T00:39:36;32.80;;;22.58;;
62673;SDS011;62269;47.594;17.638;2024-03-07T00:40:34;26.67;;;21.12;;
62673;SDS011;62269;47.594;17.638;2024-03-07T00:41:31;30.10;;;23.02;;
62673;SDS011;62269;47.594;17.638;2024-03-07T00:42:28;27.52;;;21.77;;
62673;SDS011;62269;47.594;17.638;2024-03-07T00:43:25;31.77;;;22.85;;
62673;SDS011;62269;47.594;17.638;2024-03-07T00:44:22;28.05;;;22.48;;
62673;SDS011;62269;47.594;17.638;2024-03-07T00:45:20;28.62;;;21.90;;
62673;SDS011;62269;47.594;17.638;2024-03-07T00:46:17;29.73;;;21.45;;
62673;SDS011;62269;47.594;17.638;2024-03-07T00:47:14;29.70;;;22.67;;
62673;SDS011;62269;47.594;17.638;2024-03-07T00:48:12;28.75;;;21.80;;
62673;SDS011;62269;47.594;17.638;2024-03-07T00:49:09;31.23;;;22.62;;
62673;SDS011;62269;47.594;17.638;2024-03-07T00:50:06;32.85;;;23.05;;
62673;SDS011;62269;47.594;17.638;2024-03-07T00:51:05;28.33;;;22.55;;
62673;SDS011;62269;47.594;17.638;2024-03-07T00:52:03;27.33;;;22.55;;
62673;SDS011;62269;47.594;17.638;2024-03-07T00:53:00;27.27;;;22.62;;
62673;SDS011;62269;47.594;17.638;2024-03-07T00:53:57;29.98;;;22.25;;
62673;SDS011;62269;47.594;17.638;2024-03-07T00:54:54;29.90;;;23.58;;
62673;SDS011;62269;47.594;17.638;2024-03-07T00:55:52;27.08;;;21.45;;
62673;SDS011;62269;47.594;17.638;2024-03-07T00:56:50;29.10;;;21.92;;
62673;SDS011;62269;47.594;17.638;2024-03-07T00:57:47;29.08;;;22.48;;
62673;SDS011;62269;47.594;17.638;2024-03-07T00:58:44;28.23;;;23.08;;
62673;SDS011;62269;47.594;17.638;2024-03-07T00:59:41;27.00;;;22.70;;
62673;SDS011;62269;47.594;17.638;2024-03-07T01:00:38;28.27;;;22.20;;
62673;SDS011;62269;47.594;17.638;2024-03-07T01:01:39;26.00;;;21.67;;
62673;SDS011;62269;47.594;17.638;2024-03-07T01:02:38;27.87;;;21.92;;
62673;SDS011;62269;47.594;17.638;2024-03-07T01:03:35;28.02;;;21.98;;
62673;SDS011;62269;47.594;17.638;2024-03-07T01:04:32;28.02;;;21.08;;
62673;SDS011;62269;47.594;17.638;2024-03-07T01:05:30;29.48;;;21.75;;
62673;SDS011;62269;47.594;17.638;2024-03-07T01:06:27;29.77;;;22.83;;
62673;SDS011;62269;47.594;17.638;2024-03-07T01:07:25;26.77;;;22.10;;
62673;SDS011;62269;47.594;17.638;2024-03-07T01:08:24;27.98;;;21.73;;
62673;SDS011;62269;47.594;17.638;2024-03-07T01:09:21;29.48;;;21.75;;
62673;SDS011;62269;47.594;17.638;2024-03-07T01:10:19;30.73;;;23.23;;
62673;SDS011;62269;47.594;17.638;2024-03-07T01:11:17;29.52;;;21.98;;
62673;SDS011;62269;47.594;17.638;2024-03-07T01:12:14;30.40;;;21.15;;
62673;SDS011;62269;47.594;17.638;2024-03-07T01:13:12;28.67;;;21.08;;
62673;SDS011;62269;47.594;17.638;2024-03-07T01:14:15;29.92;;;22.30;;
62673;SDS011;62269;47.594;17.638;2024-03-07T01:15:12;26.98;;;20.55;;
62673;SDS011;62269;47.594;17.638;2024-03-07T01:16:11;27.48;;;22.02;;
62673;SDS011;62269;47.594;17.638;2024-03-07T01:17:09;27.00;;;22.00;;
62673;SDS011;62269;47.594;17.638;2024-03-07T01:18:07;28.92;;;21.27;;
62673;SDS011;62269;47.594;17.638;2024-03-07T01:19:04;27.48;;;21.15;;
62673;SDS011;62269;47.594;17.638;2024-03-07T01:20:02;30.15;;;22.05;;
62673;SDS011;62269;47.594;17.638;2024-03-07T01:21:01;28.62;;;22.17;;
62673;SDS011;62269;47.594;17.638;2024-03-07T01:21:59;25.45;;;21.73;;
62673;SDS011;62269;47.594;17.638;2024-03-07T01:22:56;27.30;;;21.08;;
62673;SDS011;62269;47.594;17.638;2024-03-07T01:23:53;26.83;;;20.60;;
62673;SDS011;62269;47.594;17.638;2024-03-07T01:24:50;25.45;;;21.75;;
62673;SDS011;62269;47.594;17.638;2024-03-07T01:25:47;27.00;;;22.42;;
62673;SDS011;62269;47.594;17.638;2024-03-07T01:26:45;26.33;;;21.37;;
62673;SDS011;62269;47.594;17.638;2024-03-07T01:27:43;28.38;;;21.62;;
62673;SDS011;62269;47.594;17.638;2024-03-07T01:28:40;29.30;;;21.27;;
62673;SDS011;62269;47.594;17.638;2024-03-07T01:29:38;26.92;;;20.98;;
62673;SDS011;62269;47.594;17.638;2024-03-07T01:30:38;24.27;;;20.97;;
62673;SDS011;62269;47.594;17.638;2024-03-07T01:31:35;27.10;;;21.25;;
62673;SDS011;62269;47.594;17.638;2024-03-07T01:32:32;26.33;;;20.62;;
62673;SDS011;62269;47.594;17.638;2024-03-07T01:33:29;27.83;;;20.75;;
62673;SDS011;62269;47.594;17.638;2024-03-07T01:34:27;23.87;;;19.37;;
62673;SDS011;62269;47.594;17.638;2024-03-07T01:35:24;26.40;;;20.83;;
62673;SDS011;62269;47.594;17.638;2024-03-07T01:36:21;24.60;;;20.08;;
62673;SDS011;62269;47.594;17.638;2024-03-07T01:37:19;26.87;;;21.60;;
62673;SDS011;62269;47.594;17.638;2024-03-07T01:38:16;27.48;;;21.40;;
62673;SDS011;62269;47.594;17.638;2024-03-07T01:39:13;25.95;;;19.83;;
62673;SDS011;62269;47.594;17.638;2024-03-07T01:40:11;27.27;;;21.25;;
62673;SDS011;62269;47.594;17.638;2024-03-07T01:41:08;27.58;;;20.77;;
62673;SDS011;62269;47.594;17.638;2024-03-07T01:42:05;26.85;;;21.15;;
62673;SDS011;62269;47.594;17.638;2024-03-07T01:43:04;24.65;;;20.10;;
62673;SDS011;62269;47.594;17.638;2024-03-07T01:44:04;26.85;;;20.58;;
62673;SDS011;62269;47.594;17.638;2024-03-07T01:45:01;26.33;;;20.33;;
62673;SDS011;62269;47.594;17.638;2024-03-07T01:45:58;26.33;;;21.33;;
62673;SDS011;62269;47.594;17.638;2024-03-07T01:46:55;24.98;;;20.35;;
62673;SDS011;62269;47.594;17.638;2024-03-07T01:47:53;25.90;;;20.73;;
62673;SDS011;62269;47.594;17.638;2024-03-07T01:48:52;27.45;;;20.90;;
62673;SDS011;62269;47.594;17.638;2024-03-07T01:49:50;27.25;;;20.75;;
62673;SDS011;62269;47.594;17.638;2024-03-07T01:50:47;25.95;;;19.75;;
62673;SDS011;62269;47.594;17.638;2024-03-07T01:51:44;27.13;;;20.25;;
62673;SDS011;62269;47.594;17.638;2024-03-07T01:52:41;29.60;;;21.27;;
62673;SDS011;62269;47.594;17.638;2024-03-07T01:53:39;27.60;;;20.83;;
62673;SDS011;62269;47.594;17.638;2024-03-07T01:54:36;27.70;;;21.33;;
62673;SDS011;62269;47.594;17.638;2024-03-07T01:55:33;25.85;;;21.30;;
62673;SDS011;62269;47.594;17.638;2024-03-07T01:56:30;24.65;;;20.85;;
62673;SDS011;62269;47.594;17.638;2024-03-07T01:57:28;25.92;;;20.95;;
62673;SDS011;62269;47.594;17.638;2024-03-07T01:58:25;25.83;;;20.27;;
62673;SDS011;62269;47.594;17.638;2024-03-07T01:59:22;28.08;;;21.70;;
62673;SDS011;62269;47.594;17.638;2024-03-07T02:00:21;26.62;;;21.17;;
62673;SDS011;62269;47.594;17.638;2024-03-07T02:01:18;28.35;;;21.75;;
62673;SDS011;62269;47.594;17.638;2024-03-07T02:02:16;28.98;;;22.08;;
62673;SDS011;62269;47.594;17.638;2024-03-07T02:03:14;25.65;;;21.02;;
62673;SDS011;62269;47.594;17.638;2024-03-07T02:04:11;28.02;;;21.08;;
62673;SDS011;62269;47.594;17.638;2024-03-07T02:05:09;25.62;;;21.23;;
62673;SDS011;62269;47.594;17.638;2024-03-07T02:06:07;25.73;;;21.50;;
62673;SDS011;62269;47.594;17.638;2024-03-07T02:07:04;30.25;;;22.77;;
62673;SDS011;62269;47.594;17.638;2024-03-07T02:08:01;28.00;;;21.17;;
62673;SDS011;62269;47.594;17.638;2024-03-07T02:08:58;24.98;;;20.20;;
62673;SDS011;62269;47.594;17.638;2024-03-07T02:10:00;26.95;;;21.58;;
62673;SDS011;62269;47.594;17.638;2024-03-07T02:10:58;29.10;;;21.42;;
62673;SDS011;62269;47.594;17.638;2024-03-07T02:11:56;28.12;;;21.83;;
62673;SDS011;62269;47.594;17.638;2024-03-07T02:12:53;29.87;;;21.50;;
62673;SDS011;62269;47.594;17.638;2024-03-07T02:13:50;26.50;;;21.77;;
62673;SDS011;62269;47.594;17.638;2024-03-07T02:14:47;30.15;;;21.92;;
62673;SDS011;62269;47.594;17.638;2024-03-07T02:15:45;26.60;;;21.40;;
62673;SDS011;62269;47.594;17.638;2024-03-07T02:16:42;26.60;;;22.45;;
62673;SDS011;62269;47.594;17.638;2024-03-07T02:17:40;27.45;;;21.42;;
62673;SDS011;62269;47.594;17.638;2024-03-07T02:18:37;26.62;;;21.95;;
62673;SDS011;62269;47.594;17.638;2024-03-07T02:19:35;25.50;;;21.08;;
62673;SDS011;62269;47.594;17.638;2024-03-07T02:20:32;29.92;;;22.52;;
62673;SDS011;62269;47.594;17.638;2024-03-07T02:21:29;24.55;;;20.70;;
62673;SDS011;62269;47.594;17.638;2024-03-07T02:22:26;26.87;;;20.73;;
62673;SDS011;62269;47.594;17.638;2024-03-07T02:23:24;26.65;;;21.05;;
62673;SDS011;62269;47.594;17.638;2024-03-07T02:24:21;24.90;;;20.25;;
62673;SDS011;62269;47.594;17.638;2024-03-07T02:25:18;26.02;;;20.42;;
62673;SDS011;62269;47.594;17.638;2024-03-07T02:26:16;28.33;;;21.73;;
62673;SDS011;62269;47.594;17.638;2024-03-07T02:27:15;28.52;;;21.40;;
62673;SDS011;62269;47.594;17.638;2024-03-07T02:28:12;27.95;;;21.80;;
62673;SDS011;62269;47.594;17.638;2024-03-07T02:29:10;28.67;;;21.08;;
62673;SDS011;62269;47.594;17.638;2024-03-07T02:30:07;26.37;;;21.40;;
62673;SDS011;62269;47.594;17.638;2024-03-07T02:31:05;28.50;;;22.58;;
62673;SDS011;62269;47.594;17.638;2024-03-07T02:32:03;25.95;;;21.02;;
62673;SDS011;62269;47.594;17.638;2024-03-07T02:33:01;26.98;;;20.90;;
62673;SDS011;62269;47.594;17.638;2024-03-07T02:34:04;27.73;;;21.10;;
62673;SDS011;62269;47.594;17.638;2024-03-07T02:35:01;24.67;;;20.60;;
62673;SDS011;62269;47.594;17.638;2024-03-07T02:36:00;25.60;;;21.00;;
62673;SDS011;62269;47.594;17.638;2024-03-07T02:36:57;25.05;;;20.27;;
62673;SDS011;62269;47.594;17.638;2024-03-07T02:37:54;25.15;;;20.12;;
62673;SDS011;62269;47.594;17.638;2024-03-07T02:38:52;26.90;;;20.98;;
62673;SDS011;62269;47.594;17.638;2024-03-07T02:39:49;24.48;;;20.50;;
62673;SDS011;62269;47.594;17.638;2024-03-07T02:40:46;27.48;;;20.92;;
62673;SDS011;62269;47.594;17.638;2024-03-07T02:41:43;26.58;;;20.55;;
62673;SDS011;62269;47.594;17.638;2024-03-07T02:42:40;26.62;;;20.85;;
62673;SDS011;62269;47.594;17.638;2024-03-07T02:43:37;25.33;;;21.10;;
62673;SDS011;62269;47.594;17.638;2024-03-07T02:44:34;28.23;;;20.48;;
62673;SDS011;62269;47.594;17.638;2024-03-07T02:45:32;27.87;;;21.77;;
62673;SDS011;62269;47.594;17.638;2024-03-07T02:46:29;27.62;;;19.98;;
62673;SDS011;62269;47.594;17.638;2024-03-07T02:47:26;24.37;;;20.37;;
62673;SDS011;62269;47.594;17.638;2024-03-07T02:48:25;26.50;;;20.95;;
62673;SDS011;62269;47.594;17.638;2024-03-07T02:49:22;26.20;;;21.37;;
62673;SDS011;62269;47.594;17.638;2024-03-07T02:50:19;24.98;;;20.48;;
62673;SDS011;62269;47.594;17.638;2024-03-07T02:51:18;27.83;;;21.20;;
62673;SDS011;62269;47.594;17.638;2024-03-07T02:52:15;28.87;;;22.23;;
62673;SDS011;62269;47.594;17.638;2024-03-07T02:53:13;24.77;;;21.52;;
62673;SDS011;62269;47.594;17.638;2024-03-07T02:54:10;24.60;;;20.23;;
62673;SDS011;62269;47.594;17.638;2024-03-07T02:55:07;28.62;;;21.98;;
62673;SDS011;62269;47.594;17.638;2024-03-07T02:56:07;29.12;;;20.30;;
62673;SDS011;62269;47.594;17.638;2024-03-07T02:57:04;26.92;;;21.23;;
62673;SDS011;62269;47.594;17.638;2024-03-07T02:58:02;26.17;;;20.62;;
62673;SDS011;62269;47.594;17.638;2024-03-07T02:58:59;24.33;;;19.92;;
62673;SDS011;62269;47.594;17.638;2024-03-07T03:00:58;25.98;;;21.17;;
62673;SDS011;62269;47.594;17.638;2024-03-07T03:01:59;23.48;;;19.48;;
62673;SDS011;62269;47.594;17.638;2024-03-07T03:02:56;27.15;;;19.98;;
62673;SDS011;62269;47.594;17.638;2024-03-07T03:03:54;24.02;;;20.75;;
62673;SDS011;62269;47.594;17.638;2024-03-07T03:04:51;22.23;;;18.65;;
62673;SDS011;62269;47.594;17.638;2024-03-07T03:05:48;23.67;;;19.67;;
62673;SDS011;62269;47.594;17.638;2024-03-07T03:06:45;25.42;;;20.95;;
62673;SDS011;62269;47.594;17.638;2024-03-07T03:07:43;30.88;;;20.65;;
62673;SDS011;62269;47.594;17.638;2024-03-07T03:08:50;23.48;;;19.83;;
62673;SDS011;62269;47.594;17.638;2024-03-07T03:09:47;24.60;;;20.30;;
62673;SDS011;62269;47.594;17.638;2024-03-07T03:10:45;23.25;;;20.08;;
62673;SDS011;62269;47.594;17.638;2024-03-07T03:11:43;25.88;;;21.12;;
62673;SDS011;62269;47.594;17.638;2024-03-07T03:12:43;24.42;;;20.05;;
62673;SDS011;62269;47.594;17.638;2024-03-07T03:13:41;24.08;;;20.05;;
62673;SDS011;62269;47.594;17.638;2024-03-07T03:14:38;22.87;;;20.02;;
62673;SDS011;62269;47.594;17.638;2024-03-07T03:15:36;23.12;;;18.15;;
62673;SDS011;62269;47.594;17.638;2024-03-07T03:16:36;23.48;;;19.15;;
62673;SDS011;62269;47.594;17.638;2024-03-07T03:17:43;28.80;;;20.95;;
62673;SDS011;62269;47.594;17.638;2024-03-07T03:18:40;23.33;;;19.50;;
62673;SDS011;62269;47.594;17.638;2024-03-07T03:19:37;22.25;;;19.00;;
62673;SDS011;62269;47.594;17.638;2024-03-07T03:20:35;20.65;;;16.45;;
62673;SDS011;62269;47.594;17.638;2024-03-07T03:21:36;16.67;;;14.40;;
62673;SDS011;62269;47.594;17.638;2024-03-07T03:22:34;19.27;;;15.15;;
62673;SDS011;62269;47.594;17.638;2024-03-07T03:23:31;19.77;;;16.65;;
62673;SDS011;62269;47.594;17.638;2024-03-07T03:24:29;18.27;;;15.40;;
62673;SDS011;62269;47.594;17.638;2024-03-07T03:25:27;21.00;;;15.90;;
62673;SDS011;62269;47.594;17.638;2024-03-07T03:26:24;22.80;;;17.60;;
62673;SDS011;62269;47.594;17.638;2024-03-07T03:27:21;20.70;;;17.40;;
62673;SDS011;62269;47.594;17.638;2024-03-07T03:28:18;21.33;;;16.83;;
62673;SDS011;62269;47.594;17.638;2024-03-07T03:29:19;22.13;;;16.33;;
62673;SDS011;62269;47.594;17.638;2024-03-07T03:30:16;20.85;;;16.48;;
62673;SDS011;62269;47.594;17.638;2024-03-07T03:31:15;20.92;;;16.40;;
62673;SDS011;62269;47.594;17.638;2024-03-07T03:32:12;21.48;;;17.02;;
62673;SDS011;62269;47.594;17.638;2024-03-07T03:33:09;19.42;;;16.40;;
62673;SDS011;62269;47.594;17.638;2024-03-07T03:34:07;19.20;;;16.65;;
62673;SDS011;62269;47.594;17.638;2024-03-07T03:35:07;18.42;;;15.52;;
62673;SDS011;62269;47.594;17.638;2024-03-07T03:36:09;17.17;;;14.45;;
62673;SDS011;62269;47.594;17.638;2024-03-07T03:37:07;21.42;;;16.98;;
62673;SDS011;62269;47.594;17.638;2024-03-07T03:38:06;18.62;;;16.17;;
62673;SDS011;62269;47.594;17.638;2024-03-07T03:39:03;18.65;;;15.95;;
62673;SDS011;62269;47.594;17.638;2024-03-07T03:40:01;17.95;;;14.23;;
62673;SDS011;62269;47.594;17.638;2024-03-07T03:40:58;16.95;;;14.18;;
62673;SDS011;62269;47.594;17.638;2024-03-07T03:41:55;14.55;;;12.85;;
62673;SDS011;62269;47.594;17.638;2024-03-07T03:42:52;16.83;;;14.45;;
62673;SDS011;62269;47.594;17.638;2024-03-07T03:43:49;17.05;;;14.60;;
62673;SDS011;62269;47.594;17.638;2024-03-07T03:44:46;16.42;;;13.62;;
62673;SDS011;62269;47.594;17.638;2024-03-07T03:45:43;16.62;;;14.32;;
62673;SDS011;62269;47.594;17.638;2024-03-07T03:46:42;15.43;;;13.32;;
62673;SDS011;62269;47.594;17.638;2024-03-07T03:47:39;15.48;;;12.90;;
62673;SDS011;62269;47.594;17.638;2024-03-07T03:48:36;15.50;;;12.95;;
62673;SDS011;62269;47.594;17.638;2024-03-07T03:49:34;15.25;;;13.50;;
62673;SDS011;62269;47.594;17.638;2024-03-07T03:50:31;14.43;;;12.55;;
62673;SDS011;62269;47.594;17.638;2024-03-07T03:51:28;14.07;;;12.43;;
62673;SDS011;62269;47.594;17.638;2024-03-07T03:52:26;15.05;;;12.43;;
62673;SDS011;62269;47.594;17.638;2024-03-07T03:53:25;15.25;;;12.73;;
62673;SDS011;62269;47.594;17.638;2024-03-07T03:54:22;16.55;;;13.27;;
62673;SDS011;62269;47.594;17.638;2024-03-07T03:55:20;14.07;;;12.35;;
62673;SDS011;62269;47.594;17.638;2024-03-07T03:56:17;14.70;;;12.25;;
62673;SDS011;62269;47.594;17.638;2024-03-07T03:57:15;15.68;;;13.35;;
62673;SDS011;62269;47.594;17.638;2024-03-07T03:58:15;15.80;;;13.45;;
62673;SDS011;62269;47.594;17.638;2024-03-07T03:59:13;13.75;;;11.80;;
62673;SDS011;62269;47.594;17.638;2024-03-07T04:00:10;14.65;;;12.98;;
62673;SDS011;62269;47.594;17.638;2024-03-07T04:02:11;13.02;;;11.63;;
62673;SDS011;62269;47.594;17.638;2024-03-07T04:03:08;16.20;;;13.30;;
62673;SDS011;62269;47.594;17.638;2024-03-07T04:04:05;14.02;;;11.38;;
62673;SDS011;62269;47.594;17.638;2024-03-07T04:05:03;13.27;;;11.57;;
62673;SDS011;62269;47.594;17.638;2024-03-07T04:06:00;13.15;;;11.80;;
62673;SDS011;62269;47.594;17.638;2024-03-07T04:06:57;13.48;;;12.07;;
62673;SDS011;62269;47.594;17.638;2024-03-07T04:07:54;14.45;;;11.77;;
62673;SDS011;62269;47.594;17.638;2024-03-07T04:08:52;14.27;;;12.63;;
62673;SDS011;62269;47.594;17.638;2024-03-07T04:09:50;14.93;;;12.13;;
62673;SDS011;62269;47.594;17.638;2024-03-07T04:10:47;13.95;;;11.48;;
62673;SDS011;62269;47.594;17.638;2024-03-07T04:11:44;13.90;;;11.75;;
62673;SDS011;62269;47.594;17.638;2024-03-07T04:12:42;15.93;;;12.23;;
62673;SDS011;62269;47.594;17.638;2024-03-07T04:13:40;12.90;;;11.25;;
62673;SDS011;62269;47.594;17.638;2024-03-07T04:14:37;12.50;;;10.93;;
62673;SDS011;62269;47.594;17.638;2024-03-07T04:15:39;13.35;;;11.65;;
62673;SDS011;62269;47.594;17.638;2024-03-07T04:16:40;13.48;;;10.95;;
62673;SDS011;62269;47.594;17.638;2024-03-07T04:17:38;13.20;;;11.12;;
62673;SDS011;62269;47.594;17.638;2024-03-07T04:18:35;14.65;;;12.50;;
62673;SDS011;62269;47.594;17.638;2024-03-07T04:19:34;12.48;;;11.18;;
62673;SDS011;62269;47.594;17.638;2024-03-07T04:20:31;12.85;;;10.75;;
62673;SDS011;62269;47.594;17.638;2024-03-07T04:21:29;12.48;;;10.27;;
62673;SDS011;62269;47.594;17.638;2024-03-07T04:22:26;11.25;;;9.77;;
62673;SDS011;62269;47.594;17.638;2024-03-07T04:23:24;12.55;;;10.10;;
62673;SDS011;62269;47.594;17.638;2024-03-07T04:24:21;10.15;;;9.05;;
62673;SDS011;62269;47.594;17.638;2024-03-07T04:25:18;9.38;;;8.43;;
62673;SDS011;62269;47.594;17.638;2024-03-07T04:26:16;9.77;;;8.77;;
62673;SDS011;62269;47.594;17.638;2024-03-07T04:27:13;9.50;;;8.50;;
62673;SDS011;62269;47.594;17.638;2024-03-07T04:28:10;10.27;;;8.82;;
62673;SDS011;62269;47.594;17.638;2024-03-07T04:29:08;8.98;;;8.02;;
62673;SDS011;62269;47.594;17.638;2024-03-07T04:30:06;10.98;;;9.07;;
62673;SDS011;62269;47.594;17.638;2024-03-07T04:31:04;9.65;;;8.55;;
62673;SDS011;62269;47.594;17.638;2024-03-07T04:32:02;11.57;;;8.50;;
62673;SDS011;62269;47.594;17.638;2024-03-07T04:33:00;9.60;;;8.25;;
62673;SDS011;62269;47.594;17.638;2024-03-07T04:33:57;10.32;;;8.73;;
62673;SDS011;62269;47.594;17.638;2024-03-07T04:34:54;9.77;;;7.90;;
62673;SDS011;62269;47.594;17.638;2024-03-07T04:35:53;9.43;;;8.23;;
62673;SDS011;62269;47.594;17.638;2024-03-07T04:36:51;9.32;;;8.43;;
62673;SDS011;62269;47.594;17.638;2024-03-07T04:37:48;8.93;;;7.30;;
62673;SDS011;62269;47.594;17.638;2024-03-07T04:38:45;9.18;;;7.95;;
62673;SDS011;62269;47.594;17.638;2024-03-07T04:39:42;9.90;;;8.63;;
62673;SDS011;62269;47.594;17.638;2024-03-07T04:40:40;8.43;;;7.53;;
62673;SDS011;62269;47.594;17.638;2024-03-07T04:41:38;13.15;;;6.82;;
62673;SDS011;62269;47.594;17.638;2024-03-07T04:42:35;7.10;;;5.70;;
62673;SDS011;62269;47.594;17.638;2024-03-07T04:43:32;11.10;;;8.57;;
62673;SDS011;62269;47.594;17.638;2024-03-07T04:44:30;9.43;;;8.07;;
62673;SDS011;62269;47.594;17.638;2024-03-07T04:45:27;9.15;;;8.25;;
62673;SDS011;62269;47.594;17.638;2024-03-07T04:46:24;10.15;;;7.87;;
62673;SDS011;62269;47.594;17.638;2024-03-07T04:47:21;9.73;;;7.53;;
62673;SDS011;62269;47.594;17.638;2024-03-07T04:48:18;10.50;;;8.40;;
62673;SDS011;62269;47.594;17.638;2024-03-07T04:49:16;10.77;;;7.87;;
62673;SDS011;62269;47.594;17.638;2024-03-07T04:50:13;9.80;;;7.82;;
62673;SDS011;62269;47.594;17.638;2024-03-07T04:51:15;8.40;;;7.50;;
62673;SDS011;62269;47.594;17.638;2024-03-07T04:52:12;8.75;;;7.68;;
62673;SDS011;62269;47.594;17.638;2024-03-07T04:53:09;8.15;;;7.22;;
62673;SDS011;62269;47.594;17.638;2024-03-07T04:54:07;8.10;;;7.30;;
62673;SDS011;62269;47.594;17.638;2024-03-07T04:55:07;9.60;;;7.62;;
62673;SDS011;62269;47.594;17.638;2024-03-07T04:56:05;77.43;;;14.20;;
62673;SDS011;62269;47.594;17.638;2024-03-07T04:57:04;33.35;;;10.48;;
62673;SDS011;62269;47.594;17.638;2024-03-07T04:58:02;15.10;;;9.20;;
62673;SDS011;62269;47.594;17.638;2024-03-07T04:59:00;10.15;;;8.02;;
62673;SDS011;62269;47.594;17.638;2024-03-07T04:59:57;8.50;;;7.60;;
62673;SDS011;62269;47.594;17.638;2024-03-07T05:00:54;8.50;;;7.25;;
62673;SDS011;62269;47.594;17.638;2024-03-07T05:01:51;8.85;;;7.40;;
62673;SDS011;62269;47.594;17.638;2024-03-07T05:02:48;8.70;;;7.47;;
62673;SDS011;62269;47.594;17.638;2024-03-07T05:03:47;8.85;;;7.62;;
62673;SDS011;62269;47.594;17.638;2024-03-07T05:04:45;8.95;;;7.97;;
62673;SDS011;62269;47.594;17.638;2024-03-07T05:05:45;8.90;;;7.78;;
62673;SDS011;62269;47.594;17.638;2024-03-07T05:06:42;9.57;;;8.18;;
62673;SDS011;62269;47.594;17.638;2024-03-07T05:07:40;8.77;;;7.82;;
62673;SDS011;62269;47.594;17.638;2024-03-07T05:08:37;10.23;;;7.57;;
62673;SDS011;62269;47.594;17.638;2024-03-07T05:09:34;9.98;;;7.65;;
62673;SDS011;62269;47.594;17.638;2024-03-07T05:10:32;8.63;;;7.65;;
62673;SDS011;62269;47.594;17.638;2024-03-07T05:11:35;10.07;;;8.57;;
62673;SDS011;62269;47.594;17.638;2024-03-07T05:12:33;10.57;;;8.32;;
62673;SDS011;62269;47.594;17.638;2024-03-07T05:13:30;9.68;;;8.10;;
62673;SDS011;62269;47.594;17.638;2024-03-07T05:14:28;10.75;;;8.65;;
62673;SDS011;62269;47.594;17.638;2024-03-07T05:15:25;10.05;;;8.85;;
62673;SDS011;62269;47.594;17.638;2024-03-07T05:16:22;9.77;;;8.77;;
62673;SDS011;62269;47.594;17.638;2024-03-07T05:17:20;10.68;;;8.35;;
62673;SDS011;62269;47.594;17.638;2024-03-07T05:18:18;9.63;;;8.20;;
62673;SDS011;62269;47.594;17.638;2024-03-07T05:19:16;9.98;;;8.15;;
62673;SDS011;62269;47.594;17.638;2024-03-07T05:20:13;9.32;;;8.18;;
62673;SDS011;62269;47.594;17.638;2024-03-07T05:21:10;10.90;;;9.07;;
62673;SDS011;62269;47.594;17.638;2024-03-07T05:22:30;12.50;;;8.98;;
62673;SDS011;62269;47.594;17.638;2024-03-07T05:23:28;10.05;;;8.95;;
62673;SDS011;62269;47.594;17.638;2024-03-07T05:24:25;10.02;;;8.32;;
62673;SDS011;62269;47.594;17.638;2024-03-07T05:25:22;11.07;;;9.55;;
62673;SDS011;62269;47.594;17.638;2024-03-07T05:26:19;10.57;;;9.18;;
62673;SDS011;62269;47.594;17.638;2024-03-07T05:27:17;11.73;;;10.23;;
62673;SDS011;62269;47.594;17.638;2024-03-07T05:28:14;10.02;;;8.93;;
62673;SDS011;62269;47.594;17.638;2024-03-07T05:29:11;11.32;;;10.07;;
62673;SDS011;62269;47.594;17.638;2024-03-07T05:30:08;12.48;;;10.00;;
62673;SDS011;62269;47.594;17.638;2024-03-07T05:31:08;12.25;;;10.02;;
62673;SDS011;62269;47.594;17.638;2024-03-07T05:32:21;11.10;;;9.55;;
62673;SDS011;62269;47.594;17.638;2024-03-07T05:34:19;11.82;;;9.65;;
62673;SDS011;62269;47.594;17.638;2024-03-07T05:35:16;11.38;;;10.18;;
62673;SDS011;62269;47.594;17.638;2024-03-07T05:36:17;11.75;;;9.75;;
62673;SDS011;62269;47.594;17.638;2024-03-07T05:37:14;10.93;;;9.77;;
62673;SDS011;62269;47.594;17.638;2024-03-07T05:38:12;11.82;;;10.00;;
62673;SDS011;62269;47.594;17.638;2024-03-07T05:39:09;13.07;;;10.80;;